Time;durP1;ratioP1;P1;durP2;ratioP2;P2;SDS_P1;SDS_P2;PMS_P1;PMS_P2;Temp;Humidity;BMP_temperature;BMP_pressure;BME280_temperature;BME280_humidity;BME280_pressure;Samples;Min_cycle;Max_cycle;Signal;HPM_P1;HPM_P2
2022/11/12 00:01:48;;;;;;;11.27;4.63;;;8.60;99.90;;;;;;4990661;28;20713;-85
2022/11/12 00:04:40;;;;;;;10.05;5.07;;;8.50;99.90;;;;;;4990725;28;20100;-86
2022/11/12 00:07:06;;;;;;;9.05;4.70;;;8.50;99.90;;;;;;5012699;28;20058;-86
2022/11/12 00:09:37;;;;;;;7.83;5.07;;;8.40;99.90;;;;;;5000375;28;20056;-86
2022/11/12 00:12:12;;;;;;;10.60;4.88;;;8.40;99.90;;;;;;4991528;28;20037;-86
2022/11/12 00:14:52;;;;;;;8.13;5.20;;;8.30;99.90;;;;;;4991770;28;20148;-87
2022/11/12 00:17:18;;;;;;;10.32;6.10;;;8.30;99.90;;;;;;4993231;22;20523;-86
2022/11/12 00:19:47;;;;;;;12.97;5.43;;;8.20;99.90;;;;;;4999083;28;20034;-86
2022/11/12 00:22:18;;;;;;;10.65;5.10;;;8.30;99.90;;;;;;4987860;28;20116;-86
2022/11/12 00:24:44;;;;;;;10.00;5.32;;;8.20;99.90;;;;;;5000127;28;20041;-86
2022/11/12 00:27:09;;;;;;;11.13;5.77;;;8.20;99.90;;;;;;4993969;28;20050;-86
2022/11/12 00:29:37;;;;;;;11.03;5.43;;;8.10;99.90;;;;;;4986711;28;20043;-86
2022/11/12 00:32:07;;;;;;;12.88;5.78;;;8.10;99.90;;;;;;4991842;28;20045;-85
2022/11/12 00:34:36;;;;;;;14.95;6.75;;;8.10;99.90;;;;;;4989088;28;20133;-86
2022/11/12 00:37:09;;;;;;;12.93;6.25;;;8.00;99.90;;;;;;4990834;28;20034;-85
2022/11/12 00:39:54;;;;;;;11.45;5.22;;;8.00;99.90;;;;;;4988072;28;20085;-86
2022/11/12 00:42:19;;;;;;;12.13;5.65;;;8.00;99.90;;;;;;4991065;28;20035;-85
2022/11/12 00:44:51;;;;;;;11.07;6.28;;;8.00;99.90;;;;;;4988089;28;20030;-85
2022/11/12 00:47:20;;;;;;;13.57;6.20;;;7.90;99.90;;;;;;4981033;28;20395;-86
2022/11/12 00:49:45;;;;;;;10.52;5.95;;;7.90;99.90;;;;;;4997629;28;20084;-85
2022/11/12 00:52:11;;;;;;;9.33;5.77;;;7.80;99.90;;;;;;4975743;28;20847;-86
2022/11/12 00:54:43;;;;;;;10.83;6.60;;;7.80;99.90;;;;;;4989888;28;20102;-87
2022/11/12 00:57:09;;;;;;;13.63;5.70;;;7.80;99.90;;;;;;4989927;28;20576;-86
2022/11/12 00:59:40;;;;;;;8.90;5.03;;;7.80;99.90;;;;;;4990672;28;20049;-86
2022/11/12 01:02:05;;;;;;;11.95;4.80;;;7.80;99.90;;;;;;4992604;28;20037;-85
2022/11/12 01:04:34;;;;;;;11.30;6.17;;;7.80;99.90;;;;;;4973450;28;20060;-86
2022/11/12 01:09:27;;;;;;;14.70;6.10;;;7.70;99.90;;;;;;4998142;28;20081;-72
2022/11/12 01:11:53;;;;;;;11.70;6.23;;;7.60;99.90;;;;;;4981330;28;20034;-72
2022/11/12 01:14:18;;;;;;;10.30;5.70;;;7.60;99.90;;;;;;5003736;28;20056;-72
2022/11/12 01:16:44;;;;;;;11.10;6.17;;;7.60;99.90;;;;;;4998554;28;20037;-72
2022/11/12 01:19:11;;;;;;;12.63;6.63;;;7.60;99.90;;;;;;4976589;28;20046;-72
2022/11/12 01:21:42;;;;;;;10.15;5.50;;;7.60;99.90;;;;;;4998956;28;20038;-72
2022/11/12 01:24:08;;;;;;;15.60;5.47;;;7.60;99.90;;;;;;4997923;28;20417;-72
2022/11/12 01:26:35;;;;;;;11.38;5.70;;;7.60;99.90;;;;;;4995273;28;20298;-72
2022/11/12 01:29:01;;;;;;;7.32;4.22;;;7.50;99.90;;;;;;5000394;28;20069;-72
2022/11/12 01:31:30;;;;;;;8.77;5.13;;;7.60;99.90;;;;;;5002809;28;20073;-72
2022/11/12 01:33:58;;;;;;;9.50;5.45;;;7.60;99.90;;;;;;5003584;28;20141;-72
2022/11/12 01:36:25;;;;;;;10.55;6.00;;;7.60;99.90;;;;;;4981326;28;20037;-72
2022/11/12 01:38:52;;;;;;;10.70;5.28;;;7.60;99.90;;;;;;4986228;28;20053;-73
2022/11/12 01:41:24;;;;;;;11.25;5.78;;;7.50;99.90;;;;;;5002027;28;20488;-72
2022/11/12 01:44:10;;;;;;;11.40;5.82;;;7.50;99.90;;;;;;4997081;28;20111;-72
2022/11/12 01:46:43;;;;;;;11.27;5.72;;;7.50;99.90;;;;;;4995104;28;20168;-72
2022/11/12 01:49:14;;;;;;;9.40;5.78;;;7.50;99.90;;;;;;4975486;28;20102;-72
2022/11/12 01:51:45;;;;;;;12.45;5.60;;;7.50;99.90;;;;;;4980370;28;20476;-72
2022/11/12 01:54:14;;;;;;;12.20;5.85;;;7.40;99.90;;;;;;4997726;28;20049;-72
2022/11/12 01:56:40;;;;;;;10.48;5.90;;;7.40;99.90;;;;;;4977306;28;20126;-72
2022/11/12 01:59:20;;;;;;;10.38;5.78;;;7.40;99.90;;;;;;4977902;28;20126;-72
2022/11/12 02:01:46;;;;;;;10.95;5.78;;;7.40;99.90;;;;;;4983703;28;20046;-72
2022/11/12 02:04:12;;;;;;;10.63;6.00;;;7.40;99.90;;;;;;4994186;28;20363;-72
2022/11/12 02:06:40;;;;;;;10.57;5.90;;;7.40;99.90;;;;;;4982456;28;20061;-72
2022/11/12 02:09:08;;;;;;;12.75;5.65;;;7.50;99.90;;;;;;4993605;28;20042;-72
2022/11/12 02:11:36;;;;;;;11.40;5.70;;;7.40;99.90;;;;;;4990263;28;20070;-72
2022/11/12 02:14:02;;;;;;;12.50;5.85;;;7.40;99.90;;;;;;4979202;28;20050;-72
2022/11/12 02:16:40;;;;;;;11.10;7.03;;;7.40;99.90;;;;;;4980457;28;20404;-73
2022/11/12 02:19:08;;;;;;;11.75;6.10;;;7.40;99.90;;;;;;4995931;28;20054;-72
2022/11/12 02:21:34;;;;;;;14.43;5.97;;;7.40;99.90;;;;;;4976502;28;20566;-72
2022/11/12 02:24:20;;;;;;;10.65;6.32;;;7.50;99.90;;;;;;4998817;28;20057;-72
2022/11/12 02:26:50;;;;;;;15.35;6.10;;;7.40;99.90;;;;;;4988118;28;20056;-72
2022/11/12 02:29:16;;;;;;;12.77;5.88;;;7.40;99.90;;;;;;4976483;28;20056;-72
2022/11/12 02:31:41;;;;;;;14.80;7.03;;;7.40;99.90;;;;;;4983906;28;20057;-72
2022/11/12 02:34:07;;;;;;;10.07;6.20;;;7.40;99.90;;;;;;4984394;28;20506;-72
2022/11/12 02:36:33;;;;;;;10.33;6.40;;;7.40;99.90;;;;;;4977652;28;20318;-72
2022/11/12 02:38:58;;;;;;;12.27;6.27;;;7.40;99.90;;;;;;4991969;28;20606;-73
2022/11/12 02:41:24;;;;;;;9.53;5.60;;;7.50;99.90;;;;;;5004247;28;20102;-72
2022/11/12 02:43:50;;;;;;;11.73;6.33;;;7.40;99.90;;;;;;4978578;28;20049;-72
2022/11/12 02:46:16;;;;;;;12.80;5.97;;;7.40;99.90;;;;;;4978675;28;20325;-72
2022/11/12 02:48:41;;;;;;;11.30;5.83;;;7.40;99.90;;;;;;4977335;28;20393;-72
2022/11/12 02:51:07;;;;;;;13.60;5.97;;;7.30;99.90;;;;;;4977051;28;20057;-72
2022/11/12 02:53:33;;;;;;;8.87;5.47;;;7.30;99.90;;;;;;4975286;28;20066;-72
2022/11/12 02:56:00;;;;;;;13.27;6.18;;;7.30;99.90;;;;;;4999648;28;20085;-72
2022/11/12 02:58:26;;;;;;;13.43;6.85;;;7.30;99.90;;;;;;4988804;28;20046;-72
2022/11/12 03:00:52;;;;;;;10.55;6.30;;;7.20;99.90;;;;;;4996341;28;20292;-72
2022/11/12 03:03:18;;;;;;;12.40;6.47;;;7.20;99.90;;;;;;5003285;28;20511;-72
2022/11/12 03:05:45;;;;;;;9.17;5.33;;;7.20;99.90;;;;;;5004225;28;20034;-72
2022/11/12 03:08:10;;;;;;;14.27;6.15;;;7.20;99.90;;;;;;4987001;28;20046;-73
2022/11/12 03:10:38;;;;;;;10.93;6.30;;;7.20;99.90;;;;;;5001046;28;20036;-72
2022/11/12 03:13:04;;;;;;;11.82;6.43;;;7.10;99.90;;;;;;5002696;28;20038;-72
2022/11/12 03:15:30;;;;;;;11.73;6.05;;;7.00;99.90;;;;;;4998592;28;20041;-72
2022/11/12 03:17:59;;;;;;;12.93;6.63;;;7.00;99.90;;;;;;5002927;28;20049;-72
2022/11/12 03:20:25;;;;;;;13.63;6.78;;;7.00;99.90;;;;;;4976112;28;20090;-72
2022/11/12 03:23:07;;;;;;;14.82;7.55;;;6.90;99.90;;;;;;4988837;23;20050;-67
2022/11/12 03:25:33;;;;;;;14.48;7.40;;;6.90;99.90;;;;;;4953336;28;20105;-67
2022/11/12 03:28:03;;;;;;;12.52;7.25;;;6.90;99.90;;;;;;4942164;28;20507;-68
2022/11/12 03:30:31;;;;;;;13.98;7.78;;;7.00;99.90;;;;;;4945959;28;20134;-67
2022/11/12 03:33:00;;;;;;;15.15;7.03;;;7.00;99.90;;;;;;4951228;28;20051;-67
2022/11/12 03:35:26;;;;;;;11.60;7.15;;;7.00;99.90;;;;;;4950918;28;20045;-67
2022/11/12 03:37:52;;;;;;;13.10;6.70;;;7.00;99.90;;;;;;4950947;28;20287;-67
2022/11/12 03:40:19;;;;;;;11.40;7.30;;;7.00;99.90;;;;;;4962932;28;20038;-66
2022/11/12 03:42:46;;;;;;;13.55;6.88;;;7.00;99.90;;;;;;4964854;28;20469;-66
2022/11/12 03:45:13;;;;;;;13.52;7.15;;;7.00;99.90;;;;;;4950091;28;20134;-66
2022/11/12 03:47:49;;;;;;;12.02;6.65;;;7.00;99.90;;;;;;4962348;28;20349;-66
2022/11/12 03:50:17;;;;;;;13.43;6.47;;;7.10;99.90;;;;;;4968734;28;20031;-66
2022/11/12 03:52:48;;;;;;;11.57;7.25;;;7.10;99.90;;;;;;4967845;28;20038;-67
2022/11/12 03:55:16;;;;;;;15.52;7.20;;;7.10;99.90;;;;;;4952397;28;20469;-67
2022/11/12 03:57:42;;;;;;;14.70;6.70;;;7.20;99.90;;;;;;4947617;28;20560;-67
2022/11/12 04:00:10;;;;;;;9.82;6.63;;;7.20;99.90;;;;;;4943415;28;20050;-67
2022/11/12 04:02:36;;;;;;;17.83;7.40;;;7.20;99.90;;;;;;4947136;28;20520;-67
2022/11/12 04:10:57;;;;;;;12.90;7.15;;;7.40;99.90;;;;;;4937356;28;20048;-68
2022/11/12 04:13:26;;;;;;;12.33;7.07;;;7.40;99.90;;;;;;4943681;28;20054;-68
2022/11/12 04:21:57;;;;;;;10.93;6.95;;;7.60;99.90;;;;;;4957741;28;19918;-66
2022/11/12 04:27:22;;;;;;;15.13;7.07;;;7.60;99.90;;;;;;4963082;28;20116;-66
2022/11/12 04:32:36;;;;;;;17.85;7.95;;;7.70;99.90;;;;;;4966767;28;20043;-66
2022/11/12 04:35:02;;;;;;;24.80;8.77;;;7.70;99.90;;;;;;4960944;28;20056;-66
2022/11/12 04:37:42;;;;;;;;;;;7.70;99.90;;;;;;4957051;28;20173;-66
2022/11/12 04:45:51;;;;;;;18.38;8.07;;;7.80;99.90;;;;;;4951302;28;20096;-67
2022/11/12 04:48:18;;;;;;;18.85;8.63;;;7.80;99.90;;;;;;4963681;28;20066;-66
2022/11/12 04:50:46;;;;;;;19.13;8.80;;;7.80;99.90;;;;;;4954723;28;20042;-66
2022/11/12 04:53:12;;;;;;;20.92;7.90;;;7.80;99.90;;;;;;4959687;28;20516;-67
2022/11/12 04:55:41;;;;;;;19.50;7.90;;;7.80;99.90;;;;;;4963397;28;20039;-66
2022/11/12 04:58:06;;;;;;;17.97;8.33;;;7.80;99.90;;;;;;4944764;28;20079;-67
2022/11/12 05:00:32;;;;;;;22.93;9.43;;;7.80;99.90;;;;;;4947048;28;20200;-67
2022/11/12 05:02:58;;;;;;;23.97;9.10;;;7.90;99.90;;;;;;4960553;28;20525;-66
2022/11/12 05:05:23;;;;;;;28.17;9.50;;;7.90;99.90;;;;;;4959532;28;20046;-67
2022/11/12 05:07:49;;;;;;;26.03;9.40;;;7.90;99.90;;;;;;4940578;28;20342;-67
2022/11/12 05:10:15;;;;;;;28.80;10.20;;;7.90;99.90;;;;;;4965612;28;20109;-67
2022/11/12 05:12:42;;;;;;;19.95;9.05;;;7.90;99.90;;;;;;4966661;28;20065;-67
2022/11/12 05:15:10;;;;;;;23.55;8.45;;;7.90;99.90;;;;;;4946650;28;20038;-67
2022/11/12 05:17:40;;;;;;;25.98;9.93;;;7.90;99.90;;;;;;4963754;28;20046;-67
2022/11/12 05:20:07;;;;;;;21.45;9.25;;;7.90;99.90;;;;;;4944274;28;20569;-67
2022/11/12 05:22:32;;;;;;;29.38;9.55;;;8.00;99.90;;;;;;4958871;28;20057;-67
2022/11/12 05:24:58;;;;;;;25.70;10.80;;;8.00;99.90;;;;;;4942409;28;20039;-67
2022/11/12 05:27:24;;;;;;;23.53;10.17;;;8.00;99.90;;;;;;4967630;28;20039;-67
2022/11/12 05:29:49;;;;;;;24.70;9.70;;;8.00;99.90;;;;;;4960146;28;20038;-67
2022/11/12 05:32:17;;;;;;;30.60;10.40;;;8.00;99.90;;;;;;4962426;28;20038;-67
2022/11/12 05:34:43;;;;;;;32.75;10.65;;;8.00;99.90;;;;;;4971431;28;20552;-67
2022/11/12 05:37:10;;;;;;;37.80;10.93;;;8.00;99.90;;;;;;4961990;28;20117;-67
2022/11/12 05:39:36;;;;;;;26.63;9.98;;;8.00;99.90;;;;;;4943124;28;20295;-67
2022/11/12 05:42:02;;;;;;;35.87;11.33;;;8.00;99.90;;;;;;4964243;28;20372;-67
2022/11/12 05:44:28;;;;;;;26.55;10.63;;;8.00;99.90;;;;;;4964693;28;20324;-67
2022/11/12 05:46:53;;;;;;;31.03;11.13;;;8.00;99.90;;;;;;4940938;28;20086;-67
2022/11/12 05:49:19;;;;;;;28.30;11.32;;;8.10;99.90;;;;;;4961455;28;20220;-68
2022/11/12 05:51:45;;;;;;;32.33;11.97;;;8.10;99.90;;;;;;4966332;28;20039;-68
2022/11/12 05:54:11;;;;;;;25.37;11.67;;;8.00;99.90;;;;;;4948891;28;20049;-67
2022/11/12 05:56:37;;;;;;;36.25;11.13;;;8.10;99.90;;;;;;4957013;28;20169;-67
2022/11/12 05:59:05;;;;;;;;;;;8.10;99.90;;;;;;4957881;28;20062;-67
2022/11/12 06:01:31;;;;;;;31.38;11.18;;;8.10;99.90;;;;;;4942159;28;19919;-67
2022/11/12 06:03:57;;;;;;;27.85;11.13;;;8.10;99.90;;;;;;4928276;28;20047;-68
2022/11/12 06:06:25;;;;;;;35.10;10.60;;;8.10;99.90;;;;;;4959043;28;20175;-67
2022/11/12 06:08:51;;;;;;;25.45;10.85;;;8.10;99.90;;;;;;4964911;28;20038;-67
2022/11/12 06:11:17;;;;;;;35.93;10.93;;;8.10;99.90;;;;;;4945523;28;20499;-67
2022/11/12 06:13:42;;;;;;;28.57;11.17;;;8.10;99.90;;;;;;4964190;28;20066;-67
2022/11/12 06:16:09;;;;;;;26.63;11.80;;;8.10;99.90;;;;;;4925111;28;20035;-67
2022/11/12 06:18:34;;;;;;;30.52;11.63;;;8.10;99.90;;;;;;4966090;28;20462;-67
2022/11/12 06:21:18;;;;;;;25.50;10.10;;;8.10;99.90;;;;;;4955998;28;20088;-68
2022/11/12 06:23:44;;;;;;;33.42;10.32;;;8.10;99.90;;;;;;4945060;28;20050;-67
2022/11/12 06:26:10;;;;;;;;;;;8.10;99.90;;;;;;4951685;28;20409;-67
2022/11/12 06:28:36;;;;;;;26.30;10.25;;;8.10;99.90;;;;;;4947682;28;19921;-67
2022/11/12 06:31:01;;;;;;;30.48;11.95;;;8.00;99.90;;;;;;4928095;28;20050;-67
2022/11/12 06:33:27;;;;;;;32.57;10.70;;;8.00;99.90;;;;;;4943178;28;20559;-67
2022/11/12 06:36:05;;;;;;;29.93;10.20;;;8.00;99.90;;;;;;4959867;28;20402;-67
2022/11/12 06:38:36;;;;;;;32.22;12.10;;;8.00;99.90;;;;;;4964309;28;20174;-67
2022/11/12 06:41:03;;;;;;;27.27;10.88;;;8.00;99.90;;;;;;4961828;28;20219;-67
2022/11/12 06:43:30;;;;;;;;;;;8.00;99.90;;;;;;4962776;28;20586;-67
2022/11/12 06:46:00;;;;;;;33.95;11.85;;;8.00;99.90;;;;;;4956751;28;23492;-67
2022/11/12 06:48:26;;;;;;;29.45;11.75;;;8.00;99.90;;;;;;4962002;28;20449;-68
2022/11/12 06:50:52;;;;;;;35.25;12.25;;;8.00;99.90;;;;;;4949150;28;20048;-67
2022/11/12 06:53:17;;;;;;;23.67;11.17;;;8.00;99.90;;;;;;4968014;28;20130;-67
2022/11/12 06:55:43;;;;;;;27.20;12.10;;;8.00;99.90;;;;;;4948057;28;20053;-67
2022/11/12 06:58:09;;;;;;;27.87;10.83;;;8.00;99.90;;;;;;4968061;28;20039;-67
2022/11/12 07:00:34;;;;;;;29.73;12.00;;;8.00;99.90;;;;;;4936967;28;20400;-67
2022/11/12 07:03:05;;;;;;;26.67;11.13;;;8.00;99.90;;;;;;4944653;28;20077;-67
2022/11/12 07:05:31;;;;;;;25.35;11.00;;;8.00;99.90;;;;;;4960664;28;20182;-67
2022/11/12 07:07:56;;;;;;;32.43;11.97;;;8.00;99.90;;;;;;4968245;28;20120;-67
2022/11/12 07:10:22;;;;;;;34.87;10.83;;;8.00;99.90;;;;;;4965057;28;20066;-67
2022/11/12 07:12:48;;;;;;;27.43;11.67;;;8.00;99.90;;;;;;4947651;28;20119;-67
2022/11/12 07:15:13;;;;;;;28.63;11.43;;;8.00;99.90;;;;;;4949183;28;20501;-67
2022/11/12 07:17:45;;;;;;;26.65;10.73;;;8.00;99.90;;;;;;4963077;28;20039;-67
2022/11/12 07:20:11;;;;;;;25.45;12.15;;;7.90;99.90;;;;;;4943169;28;20436;-67
2022/11/12 07:22:37;;;;;;;23.10;11.32;;;8.00;99.90;;;;;;4944884;28;20576;-68
2022/11/12 07:25:03;;;;;;;27.97;11.10;;;8.00;99.90;;;;;;4948007;28;20235;-67
2022/11/12 07:27:29;;;;;;;24.80;10.65;;;8.00;99.90;;;;;;4962673;28;20046;-67
2022/11/12 07:29:55;;;;;;;;;;;8.00;99.90;;;;;;4954838;28;20113;-67
2022/11/12 07:32:21;;;;;;;24.95;10.88;;;8.00;99.90;;;;;;4931214;28;19926;-67
2022/11/12 07:34:49;;;;;;;27.60;11.70;;;8.00;99.90;;;;;;4966726;28;20039;-67
2022/11/12 07:37:15;;;;;;;30.25;11.05;;;8.00;99.90;;;;;;4957542;28;20114;-67
2022/11/12 07:39:41;;;;;;;26.73;10.93;;;8.00;99.90;;;;;;4948404;28;20121;-67
2022/11/12 07:42:06;;;;;;;31.30;11.10;;;8.00;99.90;;;;;;4964524;28;20077;-67
2022/11/12 07:44:32;;;;;;;22.23;9.90;;;8.10;99.90;;;;;;4946143;28;20046;-67
2022/11/12 07:46:58;;;;;;;29.67;11.03;;;8.10;99.90;;;;;;4948153;28;20514;-67
2022/11/12 07:49:23;;;;;;;21.70;10.70;;;8.00;99.90;;;;;;4960208;28;20045;-67
2022/11/12 07:51:49;;;;;;;30.00;10.57;;;8.10;99.90;;;;;;4969143;28;20062;-68
2022/11/12 07:54:15;;;;;;;21.60;10.63;;;8.10;99.90;;;;;;4966562;28;20050;-67
2022/11/12 07:56:40;;;;;;;20.63;10.27;;;8.00;99.90;;;;;;4944371;28;20122;-67
2022/11/12 07:59:06;;;;;;;25.80;10.53;;;8.00;99.90;;;;;;4948254;28;20039;-67
2022/11/12 08:01:37;;;;;;;26.52;10.60;;;8.10;99.90;;;;;;4958116;28;20102;-67
2022/11/12 08:04:06;;;;;;;23.88;10.98;;;8.00;99.90;;;;;;4962918;28;20119;-67
2022/11/12 08:06:33;;;;;;;26.00;11.48;;;8.00;99.90;;;;;;4959813;28;20089;-67
2022/11/12 08:09:01;;;;;;;21.52;10.93;;;8.00;99.90;;;;;;4946396;28;20564;-68
2022/11/12 08:11:26;;;;;;;26.65;10.55;;;8.00;99.90;;;;;;4944895;28;20051;-68
2022/11/12 08:13:52;;;;;;;19.40;9.47;;;8.10;99.90;;;;;;4943581;28;20043;-67
2022/11/12 08:16:18;;;;;;;30.03;11.13;;;8.10;99.90;;;;;;4955183;28;20133;-67
2022/11/12 08:18:45;;;;;;;27.55;12.07;;;8.10;99.90;;;;;;4966221;28;20043;-67
2022/11/12 08:21:13;;;;;;;25.80;11.55;;;8.10;99.90;;;;;;4965506;28;20043;-67
2022/11/12 08:23:39;;;;;;;22.55;10.70;;;8.10;99.90;;;;;;4942089;28;20555;-67
2022/11/12 08:26:08;;;;;;;24.63;11.85;;;8.10;99.90;;;;;;4949083;28;20548;-67
2022/11/12 08:28:35;;;;;;;25.00;11.25;;;8.10;99.90;;;;;;4947510;28;20158;-67
2022/11/12 08:31:16;;;;;;;25.27;11.82;;;8.20;99.90;;;;;;4941369;28;20319;-67
2022/11/12 08:33:42;;;;;;;26.20;12.10;;;8.10;99.90;;;;;;4944505;28;20507;-67
2022/11/12 08:36:10;;;;;;;27.52;12.25;;;8.20;99.90;;;;;;4942822;28;20130;-67
2022/11/12 08:38:36;;;;;;;28.45;13.15;;;8.20;99.90;;;;;;4945478;28;20058;-67
2022/11/12 08:41:04;;;;;;;32.15;12.32;;;8.20;99.90;;;;;;4926112;28;20066;-66
2022/11/12 08:43:29;;;;;;;30.05;12.18;;;8.30;99.90;;;;;;4962629;28;20484;-67
2022/11/12 08:45:58;;;;;;;32.17;12.90;;;8.30;99.90;;;;;;4940056;28;20079;-66
2022/11/12 08:48:24;;;;;;;28.40;12.07;;;8.30;99.90;;;;;;4957864;28;20050;-67
2022/11/12 08:50:50;;;;;;;30.58;13.48;;;8.30;99.90;;;;;;4958980;28;20070;-67
2022/11/12 08:53:16;;;;;;;26.43;12.67;;;8.30;99.90;;;;;;4946319;28;20043;-67
2022/11/12 08:55:42;;;;;;;33.92;14.05;;;8.40;99.90;;;;;;4946301;28;20062;-67
2022/11/12 08:58:09;;;;;;;41.70;13.10;;;8.40;99.90;;;;;;4944122;28;20047;-67
2022/11/12 09:00:42;;;;;;;37.53;13.07;;;8.50;99.90;;;;;;4962086;28;20050;-67
2022/11/12 09:03:15;;;;;;;36.08;14.10;;;8.40;99.90;;;;;;4964950;28;20385;-66
2022/11/12 09:05:41;;;;;;;30.60;13.55;;;8.50;99.90;;;;;;4957282;28;20095;-69
2022/11/12 09:08:10;;;;;;;32.95;14.23;;;8.50;99.90;;;;;;4946382;28;20045;-67
2022/11/12 09:10:37;;;;;;;33.67;13.45;;;8.50;99.90;;;;;;4962632;28;20078;-67
2022/11/12 09:13:03;;;;;;;41.78;14.02;;;8.50;99.90;;;;;;4960184;28;20047;-67
2022/11/12 09:15:30;;;;;;;34.83;15.10;;;8.60;99.90;;;;;;4951104;28;20050;-67
2022/11/12 09:18:00;;;;;;;37.30;13.30;;;8.60;99.90;;;;;;4942009;28;20509;-67
2022/11/12 09:20:28;;;;;;;37.92;15.05;;;8.60;99.90;;;;;;4961754;28;20118;-67
2022/11/12 09:22:58;;;;;;;38.13;15.40;;;8.70;99.90;;;;;;4967863;23;20479;-73
2022/11/12 09:25:24;;;;;;;38.10;15.15;;;8.60;99.90;;;;;;4977300;28;20050;-73
2022/11/12 09:27:50;;;;;;;36.33;14.70;;;8.70;99.90;;;;;;5002380;28;20041;-73
2022/11/12 09:30:15;;;;;;;38.63;15.30;;;8.70;99.90;;;;;;4984762;28;20042;-73
2022/11/12 09:32:41;;;;;;;39.03;15.53;;;8.70;99.90;;;;;;4985033;28;20053;-73
2022/11/12 09:35:07;;;;;;;38.83;16.00;;;8.70;99.90;;;;;;4993630;28;20072;-73
2022/11/12 09:37:32;;;;;;;44.33;15.30;;;8.80;99.90;;;;;;4989318;28;20041;-73
2022/11/12 09:39:58;;;;;;;35.37;16.03;;;8.80;99.90;;;;;;5005549;28;20045;-73
2022/11/12 09:42:24;;;;;;;34.63;15.57;;;8.80;99.90;;;;;;4986917;28;20483;-73
2022/11/12 09:45:11;;;;;;;33.20;14.63;;;8.80;99.90;;;;;;5006081;28;20410;-71
2022/11/12 09:48:05;;;;;;;37.30;13.73;;;8.90;99.90;;;;;;4977434;28;20303;-72
2022/11/12 09:51:02;;;;;;;37.20;12.57;;;8.90;99.90;;;;;;4988777;28;20057;-72
2022/11/12 09:53:46;;;;;;;34.50;12.65;;;8.90;99.90;;;;;;4985638;28;20324;-72
2022/11/12 09:56:14;;;;;;;35.80;12.85;;;8.90;99.90;;;;;;4986879;28;20834;-72
2022/11/12 09:58:40;;;;;;;34.05;14.27;;;8.90;99.90;;;;;;4997844;28;20049;-72
2022/11/12 10:01:14;;;;;;;39.50;13.83;;;8.90;99.90;;;;;;4987218;28;20521;-72
2022/11/12 10:04:16;;;;;;;40.95;14.27;;;8.90;99.90;;;;;;4986765;28;20342;-72
2022/11/12 10:07:04;;;;;;;37.22;12.77;;;8.90;99.90;;;;;;4966540;28;20107;-72
2022/11/12 10:09:44;;;;;;;31.80;12.70;;;8.90;99.90;;;;;;4985390;28;20054;-73
2022/11/12 10:12:31;;;;;;;35.90;13.18;;;8.90;99.90;;;;;;4978968;28;20038;-72
2022/11/12 10:18:26;;;;;;;30.17;12.73;;;8.90;99.90;;;;;;5000442;28;20042;-72
2022/11/12 10:21:07;;;;;;;28.60;13.68;;;8.90;99.90;;;;;;4984642;28;20045;-72
2022/11/12 10:23:39;;;;;;;33.33;15.18;;;8.90;99.90;;;;;;4980230;28;20077;-72
2022/11/12 10:26:16;;;;;;;36.13;14.75;;;8.90;99.90;;;;;;4981819;28;20071;-72
2022/11/12 10:28:42;;;;;;;32.85;13.50;;;9.00;99.90;;;;;;4988716;28;20491;-72
2022/11/12 10:31:16;;;;;;;32.47;14.00;;;9.00;99.90;;;;;;5007118;28;20049;-72
2022/11/12 10:33:42;;;;;;;35.72;13.60;;;9.00;99.90;;;;;;5012196;28;20052;-72
2022/11/12 10:36:16;;;;;;;37.20;15.80;;;9.00;99.90;;;;;;4987451;28;20046;-72
2022/11/12 10:38:45;;;;;;;31.63;14.55;;;9.00;99.90;;;;;;4982036;28;20038;-72
2022/11/12 10:41:21;;;;;;;33.63;15.52;;;9.10;99.90;;;;;;4989897;28;20591;-72
2022/11/12 10:43:57;;;;;;;39.80;14.77;;;9.10;99.90;;;;;;4990183;28;20037;-72
2022/11/12 10:46:35;;;;;;;33.85;15.13;;;9.10;99.90;;;;;;4999641;28;20046;-72
2022/11/12 10:49:07;;;;;;;35.10;14.93;;;9.10;99.90;;;;;;4984496;28;20227;-72
2022/11/12 10:51:35;;;;;;;36.33;15.65;;;9.10;99.90;;;;;;5000776;28;20046;-72
2022/11/12 10:54:25;;;;;;;38.28;15.35;;;9.10;99.90;;;;;;4990413;28;20548;-72
2022/11/12 10:56:52;;;;;;;32.55;13.85;;;9.10;99.90;;;;;;4997020;28;20041;-72
2022/11/12 10:59:19;;;;;;;33.80;14.50;;;9.10;99.90;;;;;;4994472;28;20117;-72
2022/11/12 11:01:52;;;;;;;34.22;15.05;;;9.10;99.90;;;;;;4994430;28;20037;-75
2022/11/12 11:04:35;;;;;;;35.53;15.75;;;9.10;99.90;;;;;;4977010;28;20132;-72
2022/11/12 11:07:24;;;;;;;39.03;16.20;;;9.20;99.90;;;;;;4996569;28;20088;-72
2022/11/12 11:10:00;;;;;;;39.83;16.48;;;9.20;99.90;;;;;;4981910;28;20053;-72
2022/11/12 11:12:30;;;;;;;30.67;14.23;;;9.10;99.90;;;;;;5009451;28;20045;-72
2022/11/12 11:15:17;;;;;;;28.60;14.45;;;9.20;99.90;;;;;;4988627;28;20080;-72
2022/11/12 11:17:43;;;;;;;36.55;14.55;;;9.20;99.90;;;;;;4981741;28;20085;-72
2022/11/12 11:20:45;;;;;;;37.63;15.67;;;9.20;99.90;;;;;;4988879;28;20041;-72
2022/11/12 11:23:22;;;;;;;32.88;14.85;;;9.30;99.90;;;;;;4937918;28;1109482;-72
2022/11/12 11:25:52;;;;;;;37.92;14.90;;;9.20;99.90;;;;;;5014042;28;20061;-72
2022/11/12 11:28:35;;;;;;;32.78;15.35;;;9.30;99.90;;;;;;4971024;28;20073;-72
2022/11/12 11:31:16;;;;;;;36.17;15.90;;;9.30;99.90;;;;;;4990375;28;20041;-72
2022/11/12 11:33:53;;;;;;;32.40;15.30;;;9.20;99.90;;;;;;5008053;28;20163;-72
2022/11/12 11:36:26;;;;;;;36.83;15.05;;;9.30;99.90;;;;;;4985535;28;20110;-72
2022/11/12 11:39:22;;;;;;;32.03;16.20;;;9.30;99.90;;;;;;4981073;28;20474;-71
2022/11/12 11:42:21;;;;;;;32.50;16.55;;;9.40;99.90;;;;;;4944057;28;20068;-72
2022/11/12 11:45:10;;;;;;;29.92;14.77;;;9.40;99.90;;;;;;4979631;28;20075;-72
2022/11/12 11:47:44;;;;;;;32.83;14.98;;;9.40;99.90;;;;;;4998912;28;20531;-72
2022/11/12 11:50:29;;;;;;;25.52;14.05;;;9.40;99.90;;;;;;5000789;28;20053;-71
2022/11/12 11:53:44;;;;;;;30.02;14.63;;;9.50;99.90;;;;;;4987431;28;20467;-71
2022/11/12 11:56:24;;;;;;;25.50;14.23;;;9.50;99.90;;;;;;4915538;29;20258;-72
2022/11/12 11:59:20;;;;;;;32.58;15.90;;;9.60;99.90;;;;;;4936943;28;20181;-72
2022/11/12 12:02:17;;;;;;;25.90;14.27;;;9.60;99.90;;;;;;4975487;28;20402;-72
2022/11/12 12:04:50;;;;;;;28.52;14.93;;;9.60;99.90;;;;;;4980018;28;20176;-72
2022/11/12 12:07:18;;;;;;;27.60;14.55;;;9.60;99.90;;;;;;4981536;28;20403;-72
2022/11/12 12:09:59;;;;;;;30.27;14.63;;;9.60;99.90;;;;;;4986629;28;20042;-71
2022/11/12 12:12:54;;;;;;;25.13;13.93;;;9.60;99.90;;;;;;5000590;28;20046;-72
2022/11/12 12:15:32;;;;;;;32.08;14.50;;;9.70;99.90;;;;;;4976514;28;20064;-72
2022/11/12 12:18:39;;;;;;;26.60;14.23;;;9.60;99.90;;;;;;4981535;28;20569;-71
2022/11/12 12:21:13;;;;;;;24.25;13.10;;;9.60;99.90;;;;;;4947970;28;20042;-72
2022/11/12 12:23:53;;;;;;;27.90;14.40;;;9.70;99.90;;;;;;5001238;28;20506;-71
2022/11/12 12:26:24;;;;;;;29.33;14.15;;;9.80;99.90;;;;;;4981072;28;20046;-72
2022/11/12 12:29:21;;;;;;;26.58;13.02;;;9.80;99.90;;;;;;5002533;28;20112;-71
2022/11/12 12:32:12;;;;;;;26.95;14.20;;;9.80;99.90;;;;;;4979417;28;20053;-72
2022/11/12 12:34:43;;;;;;;27.58;13.55;;;9.80;99.90;;;;;;5006477;28;20524;-72
2022/11/12 12:37:30;;;;;;;29.70;14.98;;;10.00;99.90;;;;;;4992900;28;20131;-72
2022/11/12 12:40:18;;;;;;;26.42;14.50;;;10.00;99.90;;;;;;5002646;28;20038;-72
2022/11/12 12:42:55;;;;;;;31.23;14.68;;;10.10;99.90;;;;;;5000389;28;20420;-72
2022/11/12 12:45:29;;;;;;;25.52;14.75;;;10.10;99.90;;;;;;4995483;28;20062;-72
2022/11/12 12:47:56;;;;;;;28.10;15.18;;;10.20;99.90;;;;;;4989174;28;20523;-71
2022/11/12 12:50:22;;;;;;;;;;;10.30;99.90;;;;;;5001920;28;20384;-72
2022/11/12 12:53:14;;;;;;;26.73;15.00;;;10.40;99.90;;;;;;5001814;28;19927;-72
2022/11/12 12:55:48;;;;;;;25.20;13.50;;;10.60;99.90;;;;;;5001053;28;20506;-72
2022/11/12 12:58:24;;;;;;;28.05;15.00;;;10.70;99.90;;;;;;5003816;28;20623;-76
2022/11/12 13:00:56;;;;;;;25.45;13.93;;;10.80;99.90;;;;;;4983561;28;20373;-71
2022/11/12 13:03:45;;;;;;;27.08;14.27;;;10.90;99.90;;;;;;4997101;28;20068;-71
2022/11/12 13:06:22;;;;;;;28.83;15.05;;;11.00;99.90;;;;;;4961869;28;20399;-71
2022/11/12 13:09:02;;;;;;;26.50;13.75;;;11.10;99.90;;;;;;4970029;28;20118;-71
2022/11/12 13:12:25;;;;;;;26.08;14.88;;;11.20;99.90;;;;;;4981519;28;20091;-71
2022/11/12 13:14:38;;;;;;;29.95;15.65;;;11.20;99.90;;;;;;4965880;28;20229;-71
2022/11/12 13:17:14;;;;;;;25.08;13.52;;;11.20;99.90;;;;;;4986502;28;20033;-71
2022/11/12 13:19:58;;;;;;;22.63;13.13;;;11.20;99.90;;;;;;5000249;28;20115;-72
2022/11/12 13:22:23;;;;;;;23.88;12.90;;;11.30;99.90;;;;;;4976425;28;20691;-72
2022/11/12 13:25:10;;;;;;;23.53;13.70;;;11.40;99.90;;;;;;5000524;28;20133;-72
2022/11/12 13:27:39;;;;;;;24.48;13.23;;;11.50;99.90;;;;;;4987511;28;20061;-71
2022/11/12 13:30:29;;;;;;;23.90;12.75;;;11.50;99.90;;;;;;4982892;28;20137;-71
2022/11/12 13:32:56;;;;;;;26.67;13.80;;;11.50;99.90;;;;;;4987174;28;20125;-72